sensor_id;sensor_type;location;lat;lon;timestamp;temperature;humidity
28608;DHT22;15802;45.654;13.804;2022-07-03T00:01:19;26.10;99.90
28608;DHT22;15802;45.654;13.804;2022-07-03T00:03:45;26.00;99.90
28608;DHT22;15802;45.654;13.804;2022-07-03T00:06:11;26.00;99.90
28608;DHT22;15802;45.654;13.804;2022-07-03T00:08:38;26.00;99.90
28608;DHT22;15802;45.654;13.804;2022-07-03T00:11:06;25.90;99.90
28608;DHT22;15802;45.654;13.804;2022-07-03T00:13:32;25.90;99.90
28608;DHT22;15802;45.654;13.804;2022-07-03T00:15:58;25.90;99.90
28608;DHT22;15802;45.654;13.804;2022-07-03T00:18:24;25.90;99.90
28608;DHT22;15802;45.654;13.804;2022-07-03T00:20:59;25.90;99.90
28608;DHT22;15802;45.654;13.804;2022-07-03T00:23:26;25.90;99.90
28608;DHT22;15802;45.654;13.804;2022-07-03T00:25:57;25.90;99.90
28608;DHT22;15802;45.654;13.804;2022-07-03T00:28:28;25.90;99.90
28608;DHT22;15802;45.654;13.804;2022-07-03T00:30:58;25.90;99.90
28608;DHT22;15802;45.654;13.804;2022-07-03T00:33:27;25.90;99.90
28608;DHT22;15802;45.654;13.804;2022-07-03T00:35:55;25.90;99.90
28608;DHT22;15802;45.654;13.804;2022-07-03T00:38:22;25.90;99.90
28608;DHT22;15802;45.654;13.804;2022-07-03T00:40:48;25.90;99.90
28608;DHT22;15802;45.654;13.804;2022-07-03T00:43:16;25.80;99.90
28608;DHT22;15802;45.654;13.804;2022-07-03T00:45:47;25.70;99.90
28608;DHT22;15802;45.654;13.804;2022-07-03T00:48:18;25.70;99.90
28608;DHT22;15802;45.654;13.804;2022-07-03T00:50:47;25.70;99.90
28608;DHT22;15802;45.654;13.804;2022-07-03T00:53:14;25.70;99.90
28608;DHT22;15802;45.654;13.804;2022-07-03T00:55:46;25.70;99.90
28608;DHT22;15802;45.654;13.804;2022-07-03T00:58:16;25.70;99.90
28608;DHT22;15802;45.654;13.804;2022-07-03T01:00:45;25.70;99.90
28608;DHT22;15802;45.654;13.804;2022-07-03T01:03:15;25.60;99.90
28608;DHT22;15802;45.654;13.804;2022-07-03T01:05:48;25.60;99.90
28608;DHT22;15802;45.654;13.804;2022-07-03T01:08:37;25.60;99.90
28608;DHT22;15802;45.654;13.804;2022-07-03T01:17:25;25.50;99.90
28608;DHT22;15802;45.654;13.804;2022-07-03T01:20:01;25.50;99.90
28608;DHT22;15802;45.654;13.804;2022-07-03T01:22:34;25.60;99.90
28608;DHT22;15802;45.654;13.804;2022-07-03T01:28:07;25.50;99.90
28608;DHT22;15802;45.654;13.804;2022-07-03T01:30:37;25.50;99.90
28608;DHT22;15802;45.654;13.804;2022-07-03T01:33:09;25.50;99.90
28608;DHT22;15802;45.654;13.804;2022-07-03T01:35:38;25.50;99.90
28608;DHT22;15802;45.654;13.804;2022-07-03T01:38:07;25.50;99.90
28608;DHT22;15802;45.654;13.804;2022-07-03T01:40:35;25.50;99.90
28608;DHT22;15802;45.654;13.804;2022-07-03T01:43:04;25.50;99.90
28608;DHT22;15802;45.654;13.804;2022-07-03T01:45:32;25.50;99.90
28608;DHT22;15802;45.654;13.804;2022-07-03T01:48:02;25.50;99.90
28608;DHT22;15802;45.654;13.804;2022-07-03T01:50:30;25.50;99.90
28608;DHT22;15802;45.654;13.804;2022-07-03T01:53:00;25.40;99.90
28608;DHT22;15802;45.654;13.804;2022-07-03T01:55:30;25.40;99.90
28608;DHT22;15802;45.654;13.804;2022-07-03T01:57:57;25.40;99.90
28608;DHT22;15802;45.654;13.804;2022-07-03T02:00:23;25.40;99.90
28608;DHT22;15802;45.654;13.804;2022-07-03T02:03:05;25.40;99.90
28608;DHT22;15802;45.654;13.804;2022-07-03T02:05:34;25.40;99.90
28608;DHT22;15802;45.654;13.804;2022-07-03T02:08:08;25.40;99.90
28608;DHT22;15802;45.654;13.804;2022-07-03T02:10:40;25.30;99.90
28608;DHT22;15802;45.654;13.804;2022-07-03T02:13:19;25.30;99.90
28608;DHT22;15802;45.654;13.804;2022-07-03T02:15:50;25.30;99.90
28608;DHT22;15802;45.654;13.804;2022-07-03T02:18:27;25.30;99.90
28608;DHT22;15802;45.654;13.804;2022-07-03T02:21:03;25.30;99.90
28608;DHT22;15802;45.654;13.804;2022-07-03T02:23:33;25.30;99.90
28608;DHT22;15802;45.654;13.804;2022-07-03T02:26:04;25.30;99.90
28608;DHT22;15802;45.654;13.804;2022-07-03T02:28:56;25.30;99.90
28608;DHT22;15802;45.654;13.804;2022-07-03T02:31:25;25.20;99.90
28608;DHT22;15802;45.654;13.804;2022-07-03T02:33:56;25.30;99.90
28608;DHT22;15802;45.654;13.804;2022-07-03T02:36:25;25.30;99.90
28608;DHT22;15802;45.654;13.804;2022-07-03T02:38:56;25.30;99.90
28608;DHT22;15802;45.654;13.804;2022-07-03T02:41:28;25.30;99.90
28608;DHT22;15802;45.654;13.804;2022-07-03T02:44:08;25.30;99.90
28608;DHT22;15802;45.654;13.804;2022-07-03T02:47:02;25.30;99.90
28608;DHT22;15802;45.654;13.804;2022-07-03T02:50:01;25.30;99.90
28608;DHT22;15802;45.654;13.804;2022-07-03T02:52:52;25.30;99.90
28608;DHT22;15802;45.654;13.804;2022-07-03T02:55:40;25.20;99.90
28608;DHT22;15802;45.654;13.804;2022-07-03T02:58:40;25.20;99.90
28608;DHT22;15802;45.654;13.804;2022-07-03T03:06:54;25.20;99.90
28608;DHT22;15802;45.654;13.804;2022-07-03T03:09:24;25.20;99.90
28608;DHT22;15802;45.654;13.804;2022-07-03T03:11:52;25.20;99.90
28608;DHT22;15802;45.654;13.804;2022-07-03T03:14:21;25.10;99.90
28608;DHT22;15802;45.654;13.804;2022-07-03T03:16:52;25.20;99.90
28608;DHT22;15802;45.654;13.804;2022-07-03T03:19:21;25.20;99.90
28608;DHT22;15802;45.654;13.804;2022-07-03T03:22:09;25.20;99.90
28608;DHT22;15802;45.654;13.804;2022-07-03T03:24:38;25.10;99.90
28608;DHT22;15802;45.654;13.804;2022-07-03T03:27:05;25.20;99.90
28608;DHT22;15802;45.654;13.804;2022-07-03T03:29:31;25.20;99.90
28608;DHT22;15802;45.654;13.804;2022-07-03T03:31:57;25.20;99.90
28608;DHT22;15802;45.654;13.804;2022-07-03T03:34:24;25.10;99.90
28608;DHT22;15802;45.654;13.804;2022-07-03T03:36:51;25.20;99.90
28608;DHT22;15802;45.654;13.804;2022-07-03T03:39:17;25.20;99.90
28608;DHT22;15802;45.654;13.804;2022-07-03T03:41:43;25.20;99.90
28608;DHT22;15802;45.654;13.804;2022-07-03T03:44:09;25.20;99.90
28608;DHT22;15802;45.654;13.804;2022-07-03T03:46:35;25.20;99.90
28608;DHT22;15802;45.654;13.804;2022-07-03T03:49:00;25.20;99.90
28608;DHT22;15802;45.654;13.804;2022-07-03T03:51:26;25.20;99.90
28608;DHT22;15802;45.654;13.804;2022-07-03T03:53:53;25.20;99.90
28608;DHT22;15802;45.654;13.804;2022-07-03T03:56:19;25.20;99.90
28608;DHT22;15802;45.654;13.804;2022-07-03T03:58:44;25.30;99.90
28608;DHT22;15802;45.654;13.804;2022-07-03T04:01:11;25.30;99.90
28608;DHT22;15802;45.654;13.804;2022-07-03T04:03:39;25.30;99.90
28608;DHT22;15802;45.654;13.804;2022-07-03T04:06:05;25.30;99.90
28608;DHT22;15802;45.654;13.804;2022-07-03T04:08:35;25.30;99.90
28608;DHT22;15802;45.654;13.804;2022-07-03T04:11:00;25.30;99.90
28608;DHT22;15802;45.654;13.804;2022-07-03T04:13:27;25.40;99.90
28608;DHT22;15802;45.654;13.804;2022-07-03T04:15:53;25.40;99.90
28608;DHT22;15802;45.654;13.804;2022-07-03T04:18:20;25.40;99.90
28608;DHT22;15802;45.654;13.804;2022-07-03T04:20:46;25.40;99.90
28608;DHT22;15802;45.654;13.804;2022-07-03T04:23:12;25.50;99.90
28608;DHT22;15802;45.654;13.804;2022-07-03T04:25:38;25.50;99.90
28608;DHT22;15802;45.654;13.804;2022-07-03T04:28:04;25.50;99.90
28608;DHT22;15802;45.654;13.804;2022-07-03T04:30:30;25.50;99.90
28608;DHT22;15802;45.654;13.804;2022-07-03T04:32:56;25.50;99.90
28608;DHT22;15802;45.654;13.804;2022-07-03T04:35:23;25.50;99.90
28608;DHT22;15802;45.654;13.804;2022-07-03T04:37:49;25.50;99.90
28608;DHT22;15802;45.654;13.804;2022-07-03T04:40:15;25.50;99.90
28608;DHT22;15802;45.654;13.804;2022-07-03T04:42:41;25.50;99.90
28608;DHT22;15802;45.654;13.804;2022-07-03T04:45:07;25.50;99.90
28608;DHT22;15802;45.654;13.804;2022-07-03T04:47:33;25.50;99.90
28608;DHT22;15802;45.654;13.804;2022-07-03T04:50:00;25.60;99.90
28608;DHT22;15802;45.654;13.804;2022-07-03T04:52:26;25.60;99.90
28608;DHT22;15802;45.654;13.804;2022-07-03T04:54:52;25.60;99.90
28608;DHT22;15802;45.654;13.804;2022-07-03T04:57:18;25.60;99.90
28608;DHT22;15802;45.654;13.804;2022-07-03T04:59:44;25.60;99.90
28608;DHT22;15802;45.654;13.804;2022-07-03T05:02:12;25.70;99.90
28608;DHT22;15802;45.654;13.804;2022-07-03T05:04:38;25.70;99.90
28608;DHT22;15802;45.654;13.804;2022-07-03T05:07:06;25.70;99.90
28608;DHT22;15802;45.654;13.804;2022-07-03T05:09:33;25.90;99.90
28608;DHT22;15802;45.654;13.804;2022-07-03T05:11:59;25.90;99.90
28608;DHT22;15802;45.654;13.804;2022-07-03T05:14:25;25.90;99.90
28608;DHT22;15802;45.654;13.804;2022-07-03T05:16:51;26.00;99.90
28608;DHT22;15802;45.654;13.804;2022-07-03T05:19:17;26.10;99.90
28608;DHT22;15802;45.654;13.804;2022-07-03T05:21:43;26.20;99.90
28608;DHT22;15802;45.654;13.804;2022-07-03T05:24:09;26.20;99.90
28608;DHT22;15802;45.654;13.804;2022-07-03T05:26:35;26.20;99.90
28608;DHT22;15802;45.654;13.804;2022-07-03T05:29:01;26.30;99.90
28608;DHT22;15802;45.654;13.804;2022-07-03T05:31:28;26.30;99.90
28608;DHT22;15802;45.654;13.804;2022-07-03T05:33:54;26.40;99.90
28608;DHT22;15802;45.654;13.804;2022-07-03T05:36:20;26.40;99.90
28608;DHT22;15802;45.654;13.804;2022-07-03T05:38:47;26.50;99.90
28608;DHT22;15802;45.654;13.804;2022-07-03T05:41:31;26.60;99.90
28608;DHT22;15802;45.654;13.804;2022-07-03T05:43:57;26.60;99.90
28608;DHT22;15802;45.654;13.804;2022-07-03T05:46:23;26.70;99.90
28608;DHT22;15802;45.654;13.804;2022-07-03T05:48:51;26.70;99.90
28608;DHT22;15802;45.654;13.804;2022-07-03T05:51:17;26.80;99.90
28608;DHT22;15802;45.654;13.804;2022-07-03T05:53:43;26.80;99.90
28608;DHT22;15802;45.654;13.804;2022-07-03T05:56:09;26.90;99.90
28608;DHT22;15802;45.654;13.804;2022-07-03T05:58:35;27.00;99.90
28608;DHT22;15802;45.654;13.804;2022-07-03T06:01:01;27.00;99.90
28608;DHT22;15802;45.654;13.804;2022-07-03T06:03:28;26.90;99.90
28608;DHT22;15802;45.654;13.804;2022-07-03T06:05:54;27.00;99.90
28608;DHT22;15802;45.654;13.804;2022-07-03T06:08:20;27.00;99.90
28608;DHT22;15802;45.654;13.804;2022-07-03T06:10:46;27.10;99.90
28608;DHT22;15802;45.654;13.804;2022-07-03T06:13:12;27.10;99.90
28608;DHT22;15802;45.654;13.804;2022-07-03T06:15:38;27.20;99.90
28608;DHT22;15802;45.654;13.804;2022-07-03T06:18:04;27.30;99.90
28608;DHT22;15802;45.654;13.804;2022-07-03T06:20:30;27.20;99.90
28608;DHT22;15802;45.654;13.804;2022-07-03T06:22:56;27.20;99.90
28608;DHT22;15802;45.654;13.804;2022-07-03T06:25:22;27.30;99.90
28608;DHT22;15802;45.654;13.804;2022-07-03T06:27:48;27.30;99.90
28608;DHT22;15802;45.654;13.804;2022-07-03T06:30:14;27.40;99.90
28608;DHT22;15802;45.654;13.804;2022-07-03T06:32:40;27.50;99.90
28608;DHT22;15802;45.654;13.804;2022-07-03T06:35:06;27.50;99.90
28608;DHT22;15802;45.654;13.804;2022-07-03T06:37:33;27.70;99.90
28608;DHT22;15802;45.654;13.804;2022-07-03T06:40:02;27.80;99.90
28608;DHT22;15802;45.654;13.804;2022-07-03T06:42:28;27.80;99.80
28608;DHT22;15802;45.654;13.804;2022-07-03T06:44:54;27.90;99.80
28608;DHT22;15802;45.654;13.804;2022-07-03T06:47:20;28.00;99.70
28608;DHT22;15802;45.654;13.804;2022-07-03T06:49:47;28.10;99.80
28608;DHT22;15802;45.654;13.804;2022-07-03T06:52:13;28.20;99.60
28608;DHT22;15802;45.654;13.804;2022-07-03T06:54:39;28.30;99.40
28608;DHT22;15802;45.654;13.804;2022-07-03T06:57:10;28.40;99.50
28608;DHT22;15802;45.654;13.804;2022-07-03T06:59:36;28.50;99.40
28608;DHT22;15802;45.654;13.804;2022-07-03T07:02:02;28.60;99.10
28608;DHT22;15802;45.654;13.804;2022-07-03T07:04:28;28.70;99.00
28608;DHT22;15802;45.654;13.804;2022-07-03T07:06:55;28.70;98.90
28608;DHT22;15802;45.654;13.804;2022-07-03T07:09:21;28.80;98.90
28608;DHT22;15802;45.654;13.804;2022-07-03T07:11:46;28.90;98.70
28608;DHT22;15802;45.654;13.804;2022-07-03T07:14:13;28.90;98.70
28608;DHT22;15802;45.654;13.804;2022-07-03T07:16:39;29.00;98.30
28608;DHT22;15802;45.654;13.804;2022-07-03T07:19:05;29.00;98.50
28608;DHT22;15802;45.654;13.804;2022-07-03T07:21:31;29.10;98.40
28608;DHT22;15802;45.654;13.804;2022-07-03T07:23:57;29.10;98.40
28608;DHT22;15802;45.654;13.804;2022-07-03T07:26:23;29.10;98.30
28608;DHT22;15802;45.654;13.804;2022-07-03T07:28:50;29.20;98.30
28608;DHT22;15802;45.654;13.804;2022-07-03T07:31:16;29.30;98.20
28608;DHT22;15802;45.654;13.804;2022-07-03T07:33:42;29.40;98.20
28608;DHT22;15802;45.654;13.804;2022-07-03T07:36:08;29.50;98.10
28608;DHT22;15802;45.654;13.804;2022-07-03T07:38:35;29.50;98.00
28608;DHT22;15802;45.654;13.804;2022-07-03T07:41:04;29.60;97.80
28608;DHT22;15802;45.654;13.804;2022-07-03T07:43:30;29.60;97.80
28608;DHT22;15802;45.654;13.804;2022-07-03T07:45:56;29.70;97.50
28608;DHT22;15802;45.654;13.804;2022-07-03T07:48:22;29.70;97.50
28608;DHT22;15802;45.654;13.804;2022-07-03T07:50:49;29.80;97.50
28608;DHT22;15802;45.654;13.804;2022-07-03T07:53:16;29.90;97.40
28608;DHT22;15802;45.654;13.804;2022-07-03T07:55:42;29.90;97.20
28608;DHT22;15802;45.654;13.804;2022-07-03T07:58:08;30.00;97.00
28608;DHT22;15802;45.654;13.804;2022-07-03T08:00:35;30.10;97.30
28608;DHT22;15802;45.654;13.804;2022-07-03T08:03:04;30.10;97.00
28608;DHT22;15802;45.654;13.804;2022-07-03T08:06:06;30.30;96.70
28608;DHT22;15802;45.654;13.804;2022-07-03T08:08:34;30.30;96.70
28608;DHT22;15802;45.654;13.804;2022-07-03T08:11:09;30.40;96.50
28608;DHT22;15802;45.654;13.804;2022-07-03T08:13:35;30.50;96.20
28608;DHT22;15802;45.654;13.804;2022-07-03T08:16:01;30.60;96.00
28608;DHT22;15802;45.654;13.804;2022-07-03T08:18:29;30.60;96.00
28608;DHT22;15802;45.654;13.804;2022-07-03T08:20:55;30.50;95.60
28608;DHT22;15802;45.654;13.804;2022-07-03T08:23:21;30.50;95.80
28608;DHT22;15802;45.654;13.804;2022-07-03T08:25:47;30.50;95.70
28608;DHT22;15802;45.654;13.804;2022-07-03T08:28:13;30.50;95.30
28608;DHT22;15802;45.654;13.804;2022-07-03T08:30:39;30.50;95.60
28608;DHT22;15802;45.654;13.804;2022-07-03T08:33:05;30.60;95.40
28608;DHT22;15802;45.654;13.804;2022-07-03T08:35:31;30.60;95.30
28608;DHT22;15802;45.654;13.804;2022-07-03T08:37:58;30.70;95.60
28608;DHT22;15802;45.654;13.804;2022-07-03T08:40:24;30.70;95.50
28608;DHT22;15802;45.654;13.804;2022-07-03T08:42:54;30.90;95.30
28608;DHT22;15802;45.654;13.804;2022-07-03T08:45:21;31.00;95.40
28608;DHT22;15802;45.654;13.804;2022-07-03T08:47:48;31.00;95.10
28608;DHT22;15802;45.654;13.804;2022-07-03T08:50:16;31.00;95.10
28608;DHT22;15802;45.654;13.804;2022-07-03T08:52:44;31.00;95.10
28608;DHT22;15802;45.654;13.804;2022-07-03T08:55:12;31.00;95.40
28608;DHT22;15802;45.654;13.804;2022-07-03T08:57:41;31.20;95.00
28608;DHT22;15802;45.654;13.804;2022-07-03T09:00:14;31.20;94.90
28608;DHT22;15802;45.654;13.804;2022-07-03T09:02:43;31.20;95.00
28608;DHT22;15802;45.654;13.804;2022-07-03T09:05:11;31.20;94.80
28608;DHT22;15802;45.654;13.804;2022-07-03T09:07:39;31.30;96.40
28608;DHT22;15802;45.654;13.804;2022-07-03T09:10:08;31.30;97.90
28608;DHT22;15802;45.654;13.804;2022-07-03T09:12:35;31.30;98.30
28608;DHT22;15802;45.654;13.804;2022-07-03T09:15:03;31.30;99.00
28608;DHT22;15802;45.654;13.804;2022-07-03T09:17:30;31.30;99.50
28608;DHT22;15802;45.654;13.804;2022-07-03T09:19:59;31.30;99.40
28608;DHT22;15802;45.654;13.804;2022-07-03T09:22:28;31.20;99.90
28608;DHT22;15802;45.654;13.804;2022-07-03T09:25:04;31.00;99.90
28608;DHT22;15802;45.654;13.804;2022-07-03T09:27:32;31.00;99.90
28608;DHT22;15802;45.654;13.804;2022-07-03T09:30:01;30.90;99.90
28608;DHT22;15802;45.654;13.804;2022-07-03T09:32:44;30.90;99.90
28608;DHT22;15802;45.654;13.804;2022-07-03T09:35:17;30.90;99.90
28608;DHT22;15802;45.654;13.804;2022-07-03T09:38:02;30.90;99.80
28608;DHT22;15802;45.654;13.804;2022-07-03T09:40:50;30.90;98.60
28608;DHT22;15802;45.654;13.804;2022-07-03T09:43:24;30.90;98.10
28608;DHT22;15802;45.654;13.804;2022-07-03T09:45:59;31.00;97.60
28608;DHT22;15802;45.654;13.804;2022-07-03T09:48:29;31.00;97.10
28608;DHT22;15802;45.654;13.804;2022-07-03T09:51:15;31.20;96.70
28608;DHT22;15802;45.654;13.804;2022-07-03T09:53:50;31.20;96.30
28608;DHT22;15802;45.654;13.804;2022-07-03T09:56:18;31.20;96.10
28608;DHT22;15802;45.654;13.804;2022-07-03T09:59:04;31.20;96.40
28608;DHT22;15802;45.654;13.804;2022-07-03T10:01:31;31.30;96.20
28608;DHT22;15802;45.654;13.804;2022-07-03T10:04:18;31.30;97.20
28608;DHT22;15802;45.654;13.804;2022-07-03T10:07:00;31.40;97.80
28608;DHT22;15802;45.654;13.804;2022-07-03T10:09:31;31.40;97.30
28608;DHT22;15802;45.654;13.804;2022-07-03T10:11:59;31.40;96.80
28608;DHT22;15802;45.654;13.804;2022-07-03T10:14:28;31.30;96.40
28608;DHT22;15802;45.654;13.804;2022-07-03T10:16:55;31.50;96.00
28608;DHT22;15802;45.654;13.804;2022-07-03T10:19:27;31.70;95.60
28608;DHT22;15802;45.654;13.804;2022-07-03T10:21:56;31.60;95.70
28608;DHT22;15802;45.654;13.804;2022-07-03T10:24:25;31.60;96.70
28608;DHT22;15802;45.654;13.804;2022-07-03T10:26:53;31.60;95.30
28608;DHT22;15802;45.654;13.804;2022-07-03T10:29:21;31.70;95.40
28608;DHT22;15802;45.654;13.804;2022-07-03T10:31:48;31.80;95.70
28608;DHT22;15802;45.654;13.804;2022-07-03T10:34:20;31.90;95.20
28608;DHT22;15802;45.654;13.804;2022-07-03T10:36:50;31.90;95.80
28608;DHT22;15802;45.654;13.804;2022-07-03T10:39:23;32.10;95.30
28608;DHT22;15802;45.654;13.804;2022-07-03T10:41:55;32.10;95.80
28608;DHT22;15802;45.654;13.804;2022-07-03T10:45:07;32.00;95.40
28608;DHT22;15802;45.654;13.804;2022-07-03T10:47:49;32.00;96.80
28608;DHT22;15802;45.654;13.804;2022-07-03T10:50:17;32.00;97.10
28608;DHT22;15802;45.654;13.804;2022-07-03T10:52:43;32.10;97.40
28608;DHT22;15802;45.654;13.804;2022-07-03T10:55:12;32.10;97.10
28608;DHT22;15802;45.654;13.804;2022-07-03T10:57:39;32.20;97.40
28608;DHT22;15802;45.654;13.804;2022-07-03T11:00:12;32.20;97.10
28608;DHT22;15802;45.654;13.804;2022-07-03T11:02:42;32.20;97.50
28608;DHT22;15802;45.654;13.804;2022-07-03T11:05:26;32.20;98.30
28608;DHT22;15802;45.654;13.804;2022-07-03T11:08:04;32.10;98.20
28608;DHT22;15802;45.654;13.804;2022-07-03T11:10:32;32.30;97.30
28608;DHT22;15802;45.654;13.804;2022-07-03T11:13:04;32.50;97.50
28608;DHT22;15802;45.654;13.804;2022-07-03T11:15:34;32.70;95.80
28608;DHT22;15802;45.654;13.804;2022-07-03T11:18:27;32.80;95.90
28608;DHT22;15802;45.654;13.804;2022-07-03T11:24:31;32.80;96.50
28608;DHT22;15802;45.654;13.804;2022-07-03T11:27:19;32.80;95.60
28608;DHT22;15802;45.654;13.804;2022-07-03T11:29:50;32.90;97.10
28608;DHT22;15802;45.654;13.804;2022-07-03T11:32:43;33.00;97.50
28608;DHT22;15802;45.654;13.804;2022-07-03T11:38:21;33.10;97.10
28608;DHT22;15802;45.654;13.804;2022-07-03T11:40:49;33.00;96.90
28608;DHT22;15802;45.654;13.804;2022-07-03T11:43:19;33.00;96.30
28608;DHT22;15802;45.654;13.804;2022-07-03T11:46:07;33.20;96.30
28608;DHT22;15802;45.654;13.804;2022-07-03T11:48:32;33.30;96.20
28608;DHT22;15802;45.654;13.804;2022-07-03T11:51:01;33.50;96.10
28608;DHT22;15802;45.654;13.804;2022-07-03T11:53:31;33.40;96.10
28608;DHT22;15802;45.654;13.804;2022-07-03T11:56:02;33.40;96.40
28608;DHT22;15802;45.654;13.804;2022-07-03T11:58:48;33.40;96.60
28608;DHT22;15802;45.654;13.804;2022-07-03T12:01:38;33.40;96.50
28608;DHT22;15802;45.654;13.804;2022-07-03T12:04:10;33.40;96.10
28608;DHT22;15802;45.654;13.804;2022-07-03T12:06:47;33.30;96.10
28608;DHT22;15802;45.654;13.804;2022-07-03T12:09:21;33.10;96.70
28608;DHT22;15802;45.654;13.804;2022-07-03T12:12:06;33.30;96.00
28608;DHT22;15802;45.654;13.804;2022-07-03T12:14:40;33.30;95.70
28608;DHT22;15802;45.654;13.804;2022-07-03T12:17:08;33.30;95.60
28608;DHT22;15802;45.654;13.804;2022-07-03T12:19:34;33.20;96.30
28608;DHT22;15802;45.654;13.804;2022-07-03T12:22:01;33.20;96.00
28608;DHT22;15802;45.654;13.804;2022-07-03T12:24:27;33.30;96.00
28608;DHT22;15802;45.654;13.804;2022-07-03T12:26:53;33.40;96.00
28608;DHT22;15802;45.654;13.804;2022-07-03T12:29:18;33.40;95.80
28608;DHT22;15802;45.654;13.804;2022-07-03T12:31:47;33.40;95.90
28608;DHT22;15802;45.654;13.804;2022-07-03T12:34:15;33.40;95.40
28608;DHT22;15802;45.654;13.804;2022-07-03T12:36:54;33.20;95.90
28608;DHT22;15802;45.654;13.804;2022-07-03T12:39:20;33.30;96.20
28608;DHT22;15802;45.654;13.804;2022-07-03T12:41:46;33.30;96.20
28608;DHT22;15802;45.654;13.804;2022-07-03T12:44:12;33.30;95.90
28608;DHT22;15802;45.654;13.804;2022-07-03T12:46:43;33.40;96.50
28608;DHT22;15802;45.654;13.804;2022-07-03T12:49:11;33.40;96.40
28608;DHT22;15802;45.654;13.804;2022-07-03T12:51:43;33.30;97.30
28608;DHT22;15802;45.654;13.804;2022-07-03T12:54:11;33.30;97.50
28608;DHT22;15802;45.654;13.804;2022-07-03T12:56:37;33.20;98.10
28608;DHT22;15802;45.654;13.804;2022-07-03T12:59:03;33.20;98.60
28608;DHT22;15802;45.654;13.804;2022-07-03T13:02:00;33.10;98.60
28608;DHT22;15802;45.654;13.804;2022-07-03T13:04:35;32.90;99.20
28608;DHT22;15802;45.654;13.804;2022-07-03T13:07:04;33.00;98.80
28608;DHT22;15802;45.654;13.804;2022-07-03T13:09:31;33.10;97.30
28608;DHT22;15802;45.654;13.804;2022-07-03T13:11:57;33.10;97.70
28608;DHT22;15802;45.654;13.804;2022-07-03T13:14:23;33.00;97.80
28608;DHT22;15802;45.654;13.804;2022-07-03T13:16:52;33.00;98.00
28608;DHT22;15802;45.654;13.804;2022-07-03T13:19:20;33.00;97.90
28608;DHT22;15802;45.654;13.804;2022-07-03T13:21:46;33.00;98.50
28608;DHT22;15802;45.654;13.804;2022-07-03T13:24:14;32.80;99.00
28608;DHT22;15802;45.654;13.804;2022-07-03T13:26:40;32.70;99.20
28608;DHT22;15802;45.654;13.804;2022-07-03T13:29:06;32.50;99.00
28608;DHT22;15802;45.654;13.804;2022-07-03T13:31:32;32.40;99.10
28608;DHT22;15802;45.654;13.804;2022-07-03T13:33:59;32.20;99.90
28608;DHT22;15802;45.654;13.804;2022-07-03T13:36:26;32.20;99.90
28608;DHT22;15802;45.654;13.804;2022-07-03T13:38:52;32.10;99.50
28608;DHT22;15802;45.654;13.804;2022-07-03T13:41:18;32.10;99.90
28608;DHT22;15802;45.654;13.804;2022-07-03T13:43:47;32.10;99.90
28608;DHT22;15802;45.654;13.804;2022-07-03T13:46:15;32.00;99.90
28608;DHT22;15802;45.654;13.804;2022-07-03T13:48:41;31.80;99.90
28608;DHT22;15802;45.654;13.804;2022-07-03T13:51:07;31.50;99.90
28608;DHT22;15802;45.654;13.804;2022-07-03T13:53:33;31.50;99.90
28608;DHT22;15802;45.654;13.804;2022-07-03T13:55:59;31.60;99.90
28608;DHT22;15802;45.654;13.804;2022-07-03T13:58:26;31.70;99.90
28608;DHT22;15802;45.654;13.804;2022-07-03T14:00:52;31.80;99.90
28608;DHT22;15802;45.654;13.804;2022-07-03T14:03:18;32.00;99.90
28608;DHT22;15802;45.654;13.804;2022-07-03T14:05:44;32.00;99.80
28608;DHT22;15802;45.654;13.804;2022-07-03T14:08:11;32.10;99.60
28608;DHT22;15802;45.654;13.804;2022-07-03T14:10:38;32.00;99.90
28608;DHT22;15802;45.654;13.804;2022-07-03T14:13:05;31.90;99.70
28608;DHT22;15802;45.654;13.804;2022-07-03T14:15:32;31.80;99.90
28608;DHT22;15802;45.654;13.804;2022-07-03T14:17:58;31.80;99.40
28608;DHT22;15802;45.654;13.804;2022-07-03T14:20:26;31.80;99.20
28608;DHT22;15802;45.654;13.804;2022-07-03T14:22:52;31.80;99.00
28608;DHT22;15802;45.654;13.804;2022-07-03T14:25:17;31.90;98.80
28608;DHT22;15802;45.654;13.804;2022-07-03T14:27:43;31.90;98.00
28608;DHT22;15802;45.654;13.804;2022-07-03T14:30:28;32.00;98.00
28608;DHT22;15802;45.654;13.804;2022-07-03T14:33:12;32.10;98.30
28608;DHT22;15802;45.654;13.804;2022-07-03T14:35:38;32.00;98.50
28608;DHT22;15802;45.654;13.804;2022-07-03T14:38:04;32.00;98.50
28608;DHT22;15802;45.654;13.804;2022-07-03T14:40:30;31.90;98.80
28608;DHT22;15802;45.654;13.804;2022-07-03T14:42:56;32.00;98.90
28608;DHT22;15802;45.654;13.804;2022-07-03T14:45:23;31.90;99.50
28608;DHT22;15802;45.654;13.804;2022-07-03T14:47:49;31.80;99.90
28608;DHT22;15802;45.654;13.804;2022-07-03T14:50:15;31.80;99.90
28608;DHT22;15802;45.654;13.804;2022-07-03T14:52:41;31.80;99.90
28608;DHT22;15802;45.654;13.804;2022-07-03T14:55:07;31.60;99.90
28608;DHT22;15802;45.654;13.804;2022-07-03T14:57:54;31.50;99.90
28608;DHT22;15802;45.654;13.804;2022-07-03T15:00:26;31.40;99.90
28608;DHT22;15802;45.654;13.804;2022-07-03T15:03:05;31.40;99.90
28608;DHT22;15802;45.654;13.804;2022-07-03T15:05:33;31.40;99.90
28608;DHT22;15802;45.654;13.804;2022-07-03T15:08:42;31.60;99.90
28608;DHT22;15802;45.654;13.804;2022-07-03T15:11:14;31.70;99.60
28608;DHT22;15802;45.654;13.804;2022-07-03T15:14:03;31.80;99.20
28608;DHT22;15802;45.654;13.804;2022-07-03T15:16:32;31.90;99.60
28608;DHT22;15802;45.654;13.804;2022-07-03T15:19:00;32.00;99.70
28608;DHT22;15802;45.654;13.804;2022-07-03T15:21:30;32.00;98.40
28608;DHT22;15802;45.654;13.804;2022-07-03T15:24:00;32.10;97.20
28608;DHT22;15802;45.654;13.804;2022-07-03T15:26:29;32.10;97.70
28608;DHT22;15802;45.654;13.804;2022-07-03T15:28:58;32.20;97.80
28608;DHT22;15802;45.654;13.804;2022-07-03T15:31:26;32.30;98.60
28608;DHT22;15802;45.654;13.804;2022-07-03T15:33:53;32.30;99.30
28608;DHT22;15802;45.654;13.804;2022-07-03T15:36:23;32.10;99.00
28608;DHT22;15802;45.654;13.804;2022-07-03T15:38:58;32.10;99.20
28608;DHT22;15802;45.654;13.804;2022-07-03T15:41:39;32.00;98.80
28608;DHT22;15802;45.654;13.804;2022-07-03T15:44:33;31.80;99.40
28608;DHT22;15802;45.654;13.804;2022-07-03T15:50:18;31.90;99.90
28608;DHT22;15802;45.654;13.804;2022-07-03T15:52:48;31.80;99.50
28608;DHT22;15802;45.654;13.804;2022-07-03T15:55:16;31.70;98.10
28608;DHT22;15802;45.654;13.804;2022-07-03T15:57:49;31.70;97.20